Latest Weather Observations for Pirlangimpi

IDD60801

Issued at 11:21 pm CST Sunday 17 February 2019 (issued every 10 minutes, with the page automatically refreshed every 10 minutes)

About weather observations | Map of weather stations | Latest weather observations for NT | Other Formats
Station Details ID: 014142 Name: PIRLANGIMPI AIRPORT Lat: -11.40 Lon: 130.42 Height: 18.3 m
Data from the previous 72 hours. | See also: Recent months at Pirlangimpi
Date/Time
CST
Temp
°C
App
Temp
°C
Dew
Point
°C
Rel
Hum
%
Delta-T
°C
Wind Press
QNH
hPa
Press
MSL
hPa
Rain since
9am
mm
Dir  Spd
km/h
Gust
km/h
Spd
kts
Gust
kts
17/11:00pm 25.2 31.2 24.3 95 0.6 CALM 0 0 0 0 1011.6 1011.5 10.6
17/10:30pm 25.4 31.5 24.5 95 0.6 CALM 0 0 0 0 1011.4 1011.3 10.6
17/10:00pm 25.4 31.5 24.4 94 0.7 CALM 0 0 0 0 1011.2 1011.1 10.6
17/09:30pm 25.6 31.8 24.6 94 0.7 CALM 0 0 0 0 1010.6 1010.5 10.6
17/09:00pm 25.8 32.0 24.6 93 0.8 CALM 0 0 0 0 1010.4 1010.3 10.6
17/08:30pm 25.8 32.0 24.6 93 0.8 CALM 0 0 0 0 1010.1 1010.0 10.6
17/08:00pm 25.9 31.9 24.3 91 1.1 CALM 0 0 0 0 1010.0 1009.9 10.6
17/07:30pm 26.0 31.7 24.4 91 1.1 WSW 2 4 1 2 1009.8 1009.7 10.6
17/07:00pm 26.0 32.1 24.4 91 1.1 CALM 0 2 0 1 1009.2 1009.1 10.6
17/06:30pm 26.1 31.8 23.8 87 1.6 CALM 0 4 0 2 1008.9 1008.8 10.6
17/06:00pm 25.5 29.1 23.7 90 1.2 SW 11 19 6 10 1009.0 1008.9 10.6
17/05:30pm 24.5 28.2 23.3 93 0.8 SE 9 22 5 12 1009.2 1009.1 10.6
17/05:00pm 25.0 25.9 21.9 83 2.1 E 20 32 11 17 1009.5 1009.4 0.2
17/04:39pm 28.0 30.2 21.8 69 4.2 E 13 39 7 21 1009.2 1009.1 0.2
17/04:30pm 33.0 37.8 24.2 60 6.2 WNW 6 13 3 7 1008.7 1008.6 0.2
17/04:00pm 32.4 36.7 24.2 62 5.7 NW 9 20 5 11 1008.2 1008.1 0.2
17/03:30pm 32.4 37.7 25.2 66 5.1 WNW 7 15 4 8 1008.3 1008.2 0.2
17/03:00pm 31.2 35.8 24.8 69 4.5 NNW 9 22 5 12 1008.8 1008.7 0.2
17/02:30pm 33.2 38.4 25.7 64 5.4 NNW 9 19 5 10 1009.2 1009.1 0.2
17/02:00pm 33.4 37.9 24.6 60 6.2 NW 9 22 5 12 1009.6 1009.5 0.2
17/01:30pm 33.5 38.8 25.2 62 5.9 NW 7 17 4 9 1010.2 1010.1 0.2
17/01:00pm 32.4 36.8 24.4 62 5.6 WNW 9 15 5 8 1010.7 1010.6 0.2
17/12:30pm 32.4 36.9 23.9 61 5.9 NW 7 13 4 7 1011.2 1011.1 0.2
17/12:00pm 32.6 37.5 24.4 62 5.8 WNW 6 9 3 5 1011.5 1011.4 0.2
17/11:30am 32.2 37.6 24.5 64 5.4 NW 4 7 2 4 1011.6 1011.5 0.2
17/11:00am 31.6 36.3 23.4 61 5.7 WNW 4 9 2 5 1011.9 1011.8 0.2
17/10:30am 31.3 36.2 24.4 66 4.8 WSW 6 13 3 7 1011.9 1011.8 0.2
17/10:00am 30.9 35.8 24.3 68 4.6 WSW 6 15 3 8 1012.2 1012.1 0.2
17/09:30am 30.1 35.1 24.5 72 3.9 W 6 11 3 6 1012.2 1012.1 0.0
17/09:00am 29.3 35.6 25.3 79 2.8 W 2 6 1 3 1012.4 1012.3 26.4
17/08:30am 28.3 34.3 25.5 85 2.0 SW 4 7 2 4 1012.1 1012.0 26.4
17/08:00am 27.0 34.3 26.3 96 0.5 CALM 0 4 0 2 1011.5 1011.4 26.4
17/07:30am 26.0 32.6 25.3 96 0.5 CALM 0 0 0 0 1011.2 1011.1 26.4
17/07:00am 25.4 31.7 24.7 96 0.5 CALM 0 0 0 0 1010.8 1010.7 26.4
17/06:30am 25.4 31.7 24.7 96 0.5 CALM 0 0 0 0 1010.4 1010.3 26.4
17/06:00am 25.5 31.8 24.8 96 0.5 CALM 0 0 0 0 1010.1 1010.0 26.2
17/05:30am 25.4 31.7 24.7 96 0.5 CALM 0 0 0 0 1009.9 1009.8 26.2
17/05:00am 25.2 31.3 24.5 96 0.5 CALM 0 0 0 0 1009.7 1009.6 26.2
17/04:30am 25.1 31.2 24.4 96 0.5 CALM 0 0 0 0 1009.5 1009.4 26.2
17/04:00am 25.1 31.2 24.4 96 0.5 CALM 0 0 0 0 1009.3 1009.2 26.2
17/03:30am 25.2 31.3 24.5 96 0.5 CALM 0 0 0 0 1009.4 1009.3 26.2
17/03:00am 25.3 31.5 24.6 96 0.5 CALM 0 0 0 0 1009.6 1009.5 26.2
17/02:30am 25.3 31.5 24.6 96 0.5 CALM 0 0 0 0 1009.9 1009.8 26.2
17/02:00am 25.3 31.5 24.6 96 0.5 CALM 0 0 0 0 1010.6 1010.5 26.2
17/01:30am 25.4 31.7 24.7 96 0.5 CALM 0 0 0 0 1011.0 1010.9 26.2
17/01:00am 25.3 31.5 24.6 96 0.5 CALM 0 0 0 0 1011.6 1011.5 26.2
17/12:30am 25.0 31.0 24.3 96 0.5 CALM 0 0 0 0 1012.0 1011.9 26.2
17/12:00am 24.9 30.9 24.2 96 0.5 CALM 0 4 0 2 1012.1 1012.0 26.2
 
Date/Time
CST
Temp
°C
App
Temp
°C
Dew
Point
°C
Rel
Hum
%
Delta-T
°C
Wind Press
QNH
hPa
Press
MSL
hPa
Rain since
9am
mm
Dir  Spd
km/h
Gust
km/h
Spd
kts
Gust
kts
16/11:30pm 24.8 30.6 23.9 95 0.6 CALM 0 0 0 0 1012.0 1011.9 26.2
16/11:00pm 24.9 30.7 24.0 95 0.6 CALM 0 0 0 0 1012.0 1011.9 26.2
16/10:30pm 25.1 31.1 24.2 95 0.6 CALM 0 0 0 0 1012.1 1012.0 26.2
16/10:00pm 25.3 31.4 24.4 95 0.6 CALM 0 0 0 0 1012.0 1011.9 26.2
16/09:30pm 25.1 31.0 24.1 94 0.7 CALM 0 0 0 0 1011.8 1011.7 26.2
16/09:00pm 25.1 31.0 24.1 94 0.7 CALM 0 0 0 0 1011.5 1011.4 26.2
16/08:30pm 25.2 31.0 24.0 93 0.8 CALM 0 0 0 0 1011.1 1011.0 26.2
16/08:00pm 25.2 31.0 24.0 93 0.8 CALM 0 0 0 0 1010.8 1010.7 26.2
16/07:30pm 25.4 31.4 24.2 93 0.8 CALM 0 0 0 0 1010.4 1010.3 26.2
16/07:00pm 25.6 31.7 24.4 93 0.8 CALM 0 0 0 0 1010.1 1010.0 26.2
16/06:30pm 25.4 31.4 24.2 93 0.8 CALM 0 2 0 1 1009.5 1009.4 26.2
16/06:00pm 25.0 30.7 23.8 93 0.8 CALM 0 2 0 1 1009.0 1008.9 26.2
16/05:30pm 24.2 28.4 23.2 94 0.7 NNW 6 9 3 5 1008.4 1008.3 26.2
16/05:00pm 24.0 27.9 22.6 92 0.9 ENE 6 13 3 7 1009.1 1009.0 26.2
16/04:30pm 24.5 24.4 22.2 87 1.5 ESE 26 43 14 23 1009.5 1009.4 8.0
16/04:26pm 25.4 26.5 21.9 81 2.3 SE 19 41 10 22 1009.6 1009.5 5.0
16/04:00pm 30.7 35.5 24.4 69 4.4 NW 7 13 4 7 1008.9 1008.8 3.0
16/03:30pm 31.9 36.5 24.7 65 5.1 NW 9 19 5 10 1009.0 1008.9 3.0
16/03:00pm 31.0 36.4 25.1 71 4.2 WSW 6 9 3 5 1009.5 1009.4 3.0
16/02:30pm 31.7 36.6 25.8 71 4.2 NW 11 20 6 11 1010.0 1009.9 2.8
16/02:00pm 30.0 36.9 26.8 83 2.3 NNW 4 11 2 6 1010.5 1010.4 2.8
16/01:30pm 32.5 36.6 24.0 61 5.9 NW 9 19 5 10 1011.1 1011.0 0.0
16/01:00pm 32.7 37.1 25.0 64 5.4 NNW 11 20 6 11 1011.3 1011.2 0.0
16/12:30pm 32.1 36.1 24.4 63 5.4 WNW 11 20 6 11 1011.6 1011.5 0.0
16/12:00pm 32.1 37.1 25.4 67 4.8 NW 9 17 5 9 1012.0 1011.9 0.0
16/11:30am 31.7 37.1 25.5 69 4.4 NW 7 15 4 8 1012.3 1012.2 0.0
16/11:00am 31.6 36.3 24.0 64 5.3 NW 6 9 3 5 1012.5 1012.4 0.0
16/10:30am 31.4 37.2 24.5 67 4.8 WSW 2 4 1 2 1012.6 1012.5 0.0
16/10:00am 30.5 35.3 24.4 70 4.3 SSW 7 11 4 6 1012.8 1012.7 0.0
16/09:30am 29.7 35.1 25.2 77 3.2 S 6 9 3 5 1012.5 1012.4 0.0
16/09:00am 28.9 34.8 25.3 81 2.5 SSE 4 7 2 4 1012.4 1012.3 0.0
16/08:30am 28.3 34.7 25.5 85 2.0 SSE 2 4 1 2 1012.0 1011.9 0.0
16/08:00am 27.3 34.5 26.2 94 0.8 CALM 0 0 0 0 1012.0 1011.9 0.0
16/07:30am 25.2 31.2 24.3 95 0.6 CALM 0 0 0 0 1011.7 1011.6 0.0
16/07:00am 24.6 30.3 23.7 95 0.6 CALM 0 2 0 1 1011.5 1011.4 0.0
16/06:30am 25.2 31.2 24.3 95 0.6 CALM 0 0 0 0 1011.3 1011.2 0.0
16/06:00am 25.4 31.3 24.7 96 0.5 SE 2 4 1 2 1011.2 1011.1 0.0
16/05:30am 25.1 30.7 24.2 95 0.6 SE 2 4 1 2 1011.2 1011.1 0.0
16/05:00am 24.9 30.7 24.0 95 0.6 CALM 0 2 0 1 1011.2 1011.1 0.0
16/04:30am 24.9 30.7 24.0 95 0.6 CALM 0 0 0 0 1010.9 1010.8 0.0
16/04:00am 24.9 30.7 23.9 94 0.7 CALM 0 0 0 0 1010.8 1010.7 0.0
16/03:30am 25.1 31.0 24.1 94 0.7 CALM 0 0 0 0 1010.6 1010.5 0.0
16/03:00am 25.3 31.3 24.3 94 0.7 CALM 0 0 0 0 1010.9 1010.8 0.0
16/02:30am 25.4 31.5 24.4 94 0.7 CALM 0 0 0 0 1011.4 1011.3 0.0
16/02:00am 25.5 31.6 24.5 94 0.7 CALM 0 0 0 0 1011.8 1011.7 0.0
16/01:30am 25.4 31.4 24.2 93 0.8 CALM 0 0 0 0 1012.0 1011.9 0.0
16/01:00am 25.9 32.0 24.5 92 1.0 CALM 0 0 0 0 1012.4 1012.3 0.0
16/12:30am 26.0 32.2 24.6 92 1.0 CALM 0 0 0 0 1012.6 1012.5 0.0
16/12:00am 25.8 32.0 24.6 93 0.8 CALM 0 0 0 0 1012.9 1012.8 0.0
 
Date/Time
CST
Temp
°C
App
Temp
°C
Dew
Point
°C
Rel
Hum
%
Delta-T
°C
Wind Press
QNH
hPa
Press
MSL
hPa
Rain since
9am
mm
Dir  Spd
km/h
Gust
km/h
Spd
kts
Gust
kts
15/11:30pm 25.4 31.2 24.0 92 1.0 CALM 0 0 0 0 1012.7 1012.6 0.0
15/11:00pm 25.7 31.2 24.1 91 1.1 ENE 2 4 1 2 1012.8 1012.7 0.0
15/10:30pm 25.9 31.8 24.1 90 1.2 CALM 0 0 0 0 1012.9 1012.8 0.0
15/10:00pm 25.8 31.5 23.7 88 1.4 CALM 0 0 0 0 1012.6 1012.5 0.0
15/09:30pm 25.9 31.4 23.4 86 1.7 CALM 0 0 0 0 1012.4 1012.3 0.0
15/09:00pm 26.1 31.4 23.0 83 2.1 CALM 0 0 0 0 1012.1 1012.0 0.0
15/08:30pm 26.2 31.2 22.5 80 2.5 CALM 0 0 0 0 1011.7 1011.6 0.0
15/08:00pm 26.6 31.2 22.4 78 2.8 SSE 2 4 1 2 1011.4 1011.3 0.0
15/07:30pm 26.9 31.2 21.9 74 3.4 S 2 6 1 3 1011.0 1010.9 0.0
15/07:00pm 26.9 30.7 21.6 72 3.5 SW 4 9 2 5 1010.5 1010.4 0.0
15/06:30pm 27.1 31.6 22.9 78 2.9 SSW 4 7 2 4 1010.6 1010.5 0.0
15/06:00pm 26.6 30.0 22.7 79 2.6 S 9 11 5 6 1010.2 1010.1 0.0
15/05:30pm 28.1 29.9 22.6 72 3.7 S 17 24 9 13 1010.1 1010.0 0.0
15/05:00pm 30.9 36.0 25.0 71 4.2 WNW 7 17 4 9 1009.5 1009.4 0.0
15/04:30pm 31.9 37.3 25.5 69 4.5 NW 7 13 4 7 1009.3 1009.2 0.0
15/04:00pm 33.1 37.8 25.6 64 5.3 NW 11 22 6 12 1009.4 1009.3 0.0
15/03:30pm 33.0 37.5 25.8 66 5.1 NW 13 22 7 12 1010.0 1009.9 0.0
15/03:00pm 33.0 37.7 25.5 64 5.3 NW 11 19 6 10 1010.4 1010.3 0.0
15/02:30pm 32.7 37.8 25.5 66 5.1 NW 9 20 5 11 1010.5 1010.4 0.0
15/02:00pm 33.9 39.0 25.6 62 5.9 NW 9 17 5 9 1010.8 1010.7 0.0
15/01:30pm 33.9 39.7 26.1 63 5.6 WNW 7 13 4 7 1011.2 1011.1 0.0
15/01:00pm 32.9 38.2 25.2 64 5.5 WNW 7 15 4 8 1011.6 1011.5 0.0
15/12:30pm 32.7 38.2 24.7 62 5.6 WNW 4 9 2 5 1012.0 1011.9 0.0
15/12:00pm 32.2 36.9 24.3 63 5.5 SW 7 11 4 6 1012.3 1012.2 0.0
15/11:30am 31.9 36.5 24.7 65 5.1 WSW 9 15 5 8 1012.6 1012.5 0.0
15/11:00am 32.0 37.1 24.6 65 5.2 W 6 15 3 8 1012.8 1012.7 0.0
15/10:30am 31.7 36.9 25.1 68 4.7 W 7 11 4 6 1012.8 1012.7 0.0
15/10:00am 30.7 36.1 25.1 72 3.9 W 6 11 3 6 1012.8 1012.7 0.0
15/09:30am 29.6 35.0 25.1 77 3.2 WSW 6 15 3 8 1012.6 1012.5 0.0
15/09:00am 29.6 34.9 24.9 76 3.3 W 6 13 3 7 1012.4 1012.3 0.0
15/08:30am 29.3 35.2 25.3 79 2.8 W 4 13 2 7 1012.2 1012.1 0.0
15/08:00am 28.9 34.5 25.5 82 2.4 NW 6 11 3 6 1011.6 1011.5 0.0
15/07:30am 27.9 34.0 25.7 88 1.6 NW 4 6 2 3 1011.2 1011.1 0.0
15/07:00am 27.3 33.4 25.1 88 1.5 WNW 2 7 1 4 1011.0 1010.9 0.0
15/06:30am 27.2 33.7 25.6 91 1.1 W 2 6 1 3 1010.7 1010.6 0.0
15/06:00am 26.5 33.0 25.6 95 0.6 NW 2 6 1 3 1010.4 1010.3 0.0
15/05:30am 26.3 32.6 25.4 95 0.6 NNW 2 6 1 3 1010.2 1010.1 0.0
15/05:00am 26.3 32.9 25.3 94 0.7 CALM 0 0 0 0 1010.0 1009.9 0.0
15/04:30am 26.3 32.9 25.3 94 0.7 CALM 0 0 0 0 1010.2 1010.1 0.0
15/04:00am 26.6 33.3 25.4 93 0.8 CALM 0 0 0 0 1010.3 1010.2 0.0
15/03:30am 26.6 33.3 25.4 93 0.8 CALM 0 0 0 0 1010.4 1010.3 0.0
15/03:00am 26.9 33.7 25.5 92 1.0 CALM 0 0 0 0 1010.5 1010.4 0.0
15/02:30am 27.3 34.3 25.9 92 1.0 CALM 0 0 0 0 1010.8 1010.7 0.0
15/02:00am 27.3 33.7 26.1 93 0.9 NW 4 6 2 3 1010.8 1010.7 0.0
15/01:30am 27.1 34.1 25.9 93 0.8 CALM 0 4 0 2 1011.4 1011.3 0.0
15/01:00am 27.3 34.2 25.7 91 1.1 CALM 0 0 0 0 1011.6 1011.5 0.0
15/12:30am 27.7 34.2 25.7 89 1.4 W 2 6 1 3 1011.7 1011.6 0.0
15/12:00am 27.7 34.2 25.7 89 1.4 WNW 2 6 1 3 1011.7 1011.6 0.0
 
Date/Time
CST
Temp
°C
App
Temp
°C
Dew
Point
°C
Rel
Hum
%
Delta-T
°C
Wind Press
QNH
hPa
Press
MSL
hPa
Rain since
9am
mm
Dir  Spd
km/h
Gust
km/h
Spd
kts
Gust
kts
14/11:30pm 27.8 34.3 25.6 88 1.6 W 2 4 1 2 1011.5 1011.4 0.0

Other Formats:

Comma delimited format used in spreadsheet applications
http://www.bom.gov.au/fwo/IDD60801/IDD60801.94119.axf

JavaScript Object Notation format (JSON) in row-major order
http://www.bom.gov.au/fwo/IDD60801/IDD60801.94119.json